Time;durP1;ratioP1;P1;durP2;ratioP2;P2;SDS_P1;SDS_P2;PMS_P1;PMS_P2;Temp;Humidity;BMP_temperature;BMP_pressure;BME280_temperature;BME280_humidity;BME280_pressure;Samples;Min_cycle;Max_cycle;Signal;HPM_P1;HPM_P2
2021/12/17 00:03:31;;;;;;;62.95;24.15;;;;;;;3.25;100.00;100433.31;10361952;28;20046;-64
2021/12/17 00:08:37;;;;;;;63.85;23.73;;;;;;;3.10;100.00;100448.16;10345854;28;20054;-61
2021/12/17 00:13:43;;;;;;;78.72;26.65;;;;;;;2.96;100.00;100435.44;10364511;28;20056;-64
2021/12/17 00:19:00;;;;;;;77.40;26.88;;;;;;;2.91;100.00;100429.41;10345160;28;20053;-64
2021/12/17 00:51:45;;;;;;;52.28;17.25;;;;;;;2.47;100.00;100411.63;10362481;28;20558;-64
2021/12/17 00:56:47;;;;;;;40.10;18.15;;;;;;;2.49;100.00;100408.94;10359694;28;21376;-62
2021/12/17 01:01:51;;;;;;;85.88;19.35;;;;;;;2.47;100.00;100400.97;10359397;28;20056;-64
2021/12/17 01:06:55;;;;;;;99.45;20.25;;;;;;;2.43;100.00;100389.59;10335483;28;20065;-60
2021/12/17 01:12:00;;;;;;;106.32;20.85;;;;;;;2.44;100.00;100390.50;10359640;28;20041;-63
2021/12/17 01:17:14;;;;;;;95.03;20.38;;;;;;;2.42;100.00;100398.50;10342586;28;20519;-57
2021/12/17 01:44:48;;;;;;;689.08;28.73;;;;;;;2.42;100.00;100389.69;10320498;28;20066;-60
2021/12/17 02:00:42;;;;;;;363.63;25.17;;;;;;;2.35;100.00;100394.38;10341851;28;20149;-61
2021/12/17 02:05:47;;;;;;;216.52;21.17;;;;;;;2.29;100.00;100394.63;10350148;28;20050;-55
2021/12/17 02:11:32;;;;;;;293.58;22.27;;;;;;;2.23;100.00;100406.38;10356853;28;20042;-63
2021/12/17 02:32:49;;;;;;;192.73;23.42;;;;;;;1.83;100.00;100427.31;10276389;28;20232;-62
2021/12/17 02:37:55;;;;;;;377.45;28.40;;;;;;;1.80;100.00;100424.78;10354662;28;20046;-61
2021/12/17 02:48:41;;;;;;;111.45;26.27;;;;;;;1.91;100.00;100431.50;10362912;28;20850;-62
2021/12/17 02:53:46;;;;;;;69.68;25.90;;;;;;;1.95;100.00;100441.06;10346766;28;20502;-58
2021/12/17 02:58:49;;;;;;;76.70;27.45;;;;;;;2.04;100.00;100446.09;10363776;28;20050;-61
2021/12/17 03:03:54;;;;;;;94.30;31.63;;;;;;;2.14;100.00;100454.56;10362106;28;20895;-61
2021/12/17 03:08:59;;;;;;;90.72;31.50;;;;;;;2.22;100.00;100455.16;10364303;28;20046;-64
2021/12/17 03:14:02;;;;;;;103.00;33.83;;;;;;;2.32;100.00;100455.66;10344805;28;20073;-61
2021/12/17 03:19:10;;;;;;;103.05;32.80;;;;;;;2.39;100.00;100450.97;10360426;28;20429;-56
2021/12/17 03:24:18;;;;;;;55.38;23.60;;;;;;;2.41;100.00;100452.66;10354594;28;20073;-64
2021/12/17 03:29:22;;;;;;;48.15;23.25;;;;;;;2.42;100.00;100461.50;10364334;28;20195;-64
2021/12/17 03:34:30;;;;;;;36.40;19.50;;;;;;;2.40;100.00;100461.56;10344325;28;20806;-62
2021/12/17 03:39:37;;;;;;;39.58;21.42;;;;;;;2.44;100.00;100465.84;10364386;28;20411;-59
2021/12/17 03:44:40;;;;;;;41.90;21.40;;;;;;;2.47;100.00;100468.38;10354285;28;20045;-59
2021/12/17 03:49:53;;;;;;;34.80;19.10;;;;;;;2.52;100.00;100478.84;10388647;28;20057;-63
2021/12/17 03:54:58;;;;;;;31.10;18.65;;;;;;;2.52;100.00;100462.03;10370589;28;20140;-63
2021/12/17 04:00:05;;;;;;;33.15;17.40;;;;;;;2.52;100.00;100467.34;10334157;28;20061;-63
2021/12/17 04:05:18;;;;;;;33.75;18.42;;;;;;;2.54;100.00;100455.72;10358457;28;20041;-61
2021/12/17 04:11:05;;;;;;;34.30;17.95;;;;;;;2.56;100.00;100442.34;10353307;28;20061;-63
2021/12/17 04:16:12;;;;;;;36.70;18.25;;;;;;;2.50;100.00;100431.94;10335214;28;20049;-58
2021/12/17 04:21:15;;;;;;;34.63;18.13;;;;;;;2.43;100.00;100434.84;10359137;28;20477;-61
2021/12/17 04:26:24;;;;;;;42.33;20.17;;;;;;;2.37;100.00;100448.38;10350768;28;20046;-64
2021/12/17 04:31:37;;;;;;;50.92;21.08;;;;;;;2.34;100.00;100451.16;10361232;28;20558;-64
2021/12/17 04:36:42;;;;;;;54.25;22.63;;;;;;;2.29;100.00;100443.34;10352122;28;20510;-59
2021/12/17 04:41:59;;;;;;;67.30;26.60;;;;;;;2.28;100.00;100451.41;10340017;28;20041;-64
2021/12/17 04:57:16;;;;;;;85.15;29.63;;;;;;;2.31;100.00;100445.94;10342913;28;20141;-60
2021/12/17 04:58:01;;;;;;;72.57;28.70;;;;;;;2.46;100.00;100458.66;10347396;28;20875;-60
2021/12/17 05:03:08;;;;;;;70.63;28.33;;;;;;;2.51;100.00;100454.97;10351019;28;20667;-60
2021/12/17 05:08:17;;;;;;;63.85;27.20;;;;;;;2.59;100.00;100474.16;10351750;28;20050;-68
2021/12/17 05:18:52;;;;;;;56.50;25.33;;;;;;;2.65;100.00;100459.75;10359922;28;20730;-60
2021/12/17 05:23:56;;;;;;;43.55;21.45;;;;;;;2.67;100.00;100456.09;10351902;28;20538;-60
2021/12/17 05:29:00;;;;;;;33.90;18.75;;;;;;;2.62;100.00;100455.41;10346475;28;20056;-63
2021/12/17 05:34:08;;;;;;;204.68;19.33;;;;;;;2.51;100.00;100455.81;10341644;28;20061;-63
2021/12/17 05:39:22;;;;;;;37.47;20.05;;;;;;;2.47;100.00;100459.53;10332730;28;20050;-60
2021/12/17 05:44:28;;;;;;;41.60;21.13;;;;;;;2.48;100.00;100461.25;10343308;28;20083;-61
2021/12/17 05:49:32;;;;;;;40.88;20.48;;;;;;;2.51;100.00;100463.81;10341396;28;20057;-60
2021/12/17 05:54:37;;;;;;;38.28;20.45;;;;;;;2.55;100.00;100478.75;10342767;28;20056;-57
2021/12/17 05:59:43;;;;;;;42.30;21.50;;;;;;;2.59;100.00;100480.34;10359075;28;20058;-59
2021/12/17 06:04:46;;;;;;;39.22;20.55;;;;;;;2.62;100.00;100471.38;10336125;28;20546;-60
2021/12/17 06:09:51;;;;;;;41.00;20.48;;;;;;;2.65;100.00;100479.22;10342612;28;20049;-59
2021/12/17 06:14:59;;;;;;;40.35;20.88;;;;;;;2.67;100.00;100477.38;10342809;28;20073;-57
2021/12/17 06:20:05;;;;;;;41.95;20.83;;;;;;;2.68;100.00;100479.13;10337291;28;20058;-64
2021/12/17 06:25:12;;;;;;;45.30;21.92;;;;;;;2.71;100.00;100481.66;10345771;28;20053;-59
2021/12/17 06:30:20;;;;;;;48.40;23.27;;;;;;;2.73;100.00;100470.94;10345336;28;20061;-66
2021/12/17 06:35:23;;;;;;;60.15;26.95;;;;;;;2.72;100.00;100472.75;10338520;28;20053;-66
2021/12/17 06:40:27;;;;;;;60.63;27.00;;;;;;;2.69;100.00;100472.03;10338828;28;20110;-62
2021/12/17 06:45:47;;;;;;;71.57;27.65;;;;;;;2.60;100.00;100475.91;10336147;28;20057;-64
2021/12/17 07:35:46;;;;;;;153.77;38.42;;;;;;;2.38;100.00;100455.44;10359879;28;20085;-59
2021/12/17 07:40:52;;;;;;;144.35;37.35;;;;;;;2.42;100.00;100462.34;10344008;28;20058;-62
2021/12/17 07:45:58;;;;;;;112.45;34.40;;;;;;;2.49;100.00;100480.75;10342564;28;20604;-63
2021/12/17 07:51:06;;;;;;;88.80;32.85;;;;;;;2.62;100.00;100482.03;10341794;28;20497;-61
2021/12/17 07:56:30;;;;;;;68.35;28.33;;;;;;;2.73;100.00;100498.44;10344376;28;20042;-64
2021/12/17 08:01:41;;;;;;;59.13;26.75;;;;;;;2.84;100.00;100503.34;10354786;28;20057;-60
2021/12/17 08:06:46;;;;;;;48.95;25.33;;;;;;;2.94;100.00;100498.53;10344833;28;20150;-62
2021/12/17 08:11:57;;;;;;;;;;;;;;;3.04;100.00;100499.03;10353504;28;20048;-60
2021/12/17 08:17:32;;;;;;;47.17;23.25;;;;;;;3.13;100.00;100489.78;10344651;28;20512;-62
2021/12/17 08:28:09;;;;;;;51.45;25.98;;;;;;;3.21;100.00;100488.53;10362079;28;20053;-60
2021/12/17 08:33:19;;;;;;;44.42;22.38;;;;;;;3.23;100.00;100500.00;10344694;28;20588;-59
2021/12/17 08:38:30;;;;;;;43.53;22.35;;;;;;;3.32;100.00;100501.44;10351517;28;20053;-63
2021/12/17 08:43:37;;;;;;;;;;;;;;;3.38;100.00;100501.16;10359994;28;20441;-61
2021/12/17 08:48:44;;;;;;;44.30;23.15;;;;;;;3.45;100.00;100503.59;10344142;28;19929;-62
2021/12/17 08:54:18;;;;;;;41.35;22.30;;;;;;;3.49;100.00;100497.19;10352684;28;20064;-60
2021/12/17 08:59:21;;;;;;;38.53;21.73;;;;;;;3.52;100.00;100499.72;10360519;28;20468;-60
2021/12/17 09:04:43;;;;;;;42.63;22.95;;;;;;;3.54;100.00;100479.22;10358158;28;20057;-61
2021/12/17 09:09:50;;;;;;;41.95;22.00;;;;;;;3.59;100.00;100484.34;10340280;28;20057;-63
2021/12/17 09:15:05;;;;;;;40.67;22.65;;;;;;;3.63;100.00;100486.81;10338581;28;20045;-63
2021/12/17 09:20:27;;;;;;;38.75;21.83;;;;;;;3.69;100.00;100489.22;10359879;28;20911;-63
2021/12/17 09:25:32;;;;;;;36.13;21.23;;;;;;;3.76;100.00;100494.28;10341312;28;20050;-63
2021/12/17 09:30:38;;;;;;;36.30;21.02;;;;;;;3.83;100.00;100477.06;10337733;28;20054;-64
2021/12/17 09:35:41;;;;;;;36.42;20.67;;;;;;;3.93;100.00;100496.19;10357853;28;20088;-64
2021/12/17 09:40:46;;;;;;;33.88;19.65;;;;;;;4.05;100.00;100478.81;10358814;28;20054;-63
2021/12/17 09:45:49;;;;;;;30.15;19.13;;;;;;;4.14;100.00;100497.06;10354563;28;20050;-64
2021/12/17 09:50:54;;;;;;;38.38;22.95;;;;;;;4.26;100.00;100504.50;10339290;28;20317;-60
2021/12/17 09:55:58;;;;;;;33.80;20.25;;;;;;;4.37;100.00;100508.50;10357964;28;20144;-63
2021/12/17 10:01:02;;;;;;;34.47;21.42;;;;;;;4.48;100.00;100515.06;10354319;28;20119;-63
2021/12/17 10:06:06;;;;;;;32.72;20.55;;;;;;;4.58;100.00;100504.81;10358093;28;20045;-64
2021/12/17 10:11:16;;;;;;;32.70;18.35;;;;;;;4.57;100.00;100496.91;10338788;28;20052;-61
2021/12/17 10:16:21;;;;;;;30.83;18.40;;;;;;;4.61;100.00;100491.34;10355039;28;20120;-59
2021/12/17 10:21:27;;;;;;;30.77;18.83;;;;;;;4.66;100.00;100484.91;10356675;28;20045;-60
2021/12/17 10:26:41;;;;;;;30.60;17.75;;;;;;;4.63;100.00;100473.44;10347533;28;20042;-62
2021/12/17 10:31:57;;;;;;;31.60;18.33;;;;;;;4.74;100.00;100469.41;10336859;28;20811;-63
2021/12/17 10:37:00;;;;;;;31.25;19.67;;;;;;;4.75;100.00;100476.47;10356950;28;20053;-63
2021/12/17 10:42:07;;;;;;;31.95;19.63;;;;;;;4.78;100.00;100473.63;10358317;28;20183;-62
2021/12/17 10:47:17;;;;;;;30.13;18.88;;;;;;;4.78;100.00;100469.19;10356175;28;20103;-61
2021/12/17 10:52:28;;;;;;;29.90;17.08;;;;;;;4.92;100.00;100483.69;10361686;28;20042;-63
2021/12/17 10:57:32;;;;;;;30.23;18.70;;;;;;;5.02;100.00;100482.28;10366904;28;20084;-62
2021/12/17 11:02:37;;;;;;;30.00;17.15;;;;;;;5.10;100.00;100479.25;10363781;28;20395;-64
2021/12/17 11:07:45;;;;;;;26.35;16.30;;;;;;;5.17;100.00;100464.63;10358732;28;20042;-64
2021/12/17 11:12:50;;;;;;;27.33;15.85;;;;;;;5.24;100.00;100459.84;10366139;28;20045;-63
2021/12/17 11:17:55;;;;;;;25.38;16.85;;;;;;;5.33;100.00;100450.50;10370311;28;20437;-63
2021/12/17 11:23:05;;;;;;;27.45;16.90;;;;;;;5.40;100.00;100449.25;10366132;28;20042;-62
2021/12/17 11:28:11;;;;;;;26.30;16.98;;;;;;;5.37;100.00;100446.72;10342346;28;20045;-60
2021/12/17 11:33:15;;;;;;;27.83;17.42;;;;;;;5.36;100.00;100445.84;10366321;28;20073;-62
2021/12/17 11:38:25;;;;;;;27.38;16.45;;;;;;;5.37;100.00;100438.69;10361862;28;20046;-65
2021/12/17 11:43:53;;;;;;;29.38;15.93;;;;;;;5.39;100.00;100427.00;10364669;28;20048;-62
2021/12/17 11:48:59;;;;;;;27.33;16.85;;;;;;;5.45;100.00;100419.59;10368011;28;20056;-66
2021/12/17 11:54:07;;;;;;;30.83;16.92;;;;;;;5.50;100.00;100428.25;10362542;28;20125;-67
2021/12/17 11:59:35;;;;;;;30.55;16.80;;;;;;;5.52;100.00;100421.03;10363625;28;20053;-62
2021/12/17 12:04:56;;;;;;;25.33;15.02;;;;;;;5.63;100.00;100428.47;10366228;28;20042;-64
2021/12/17 12:10:21;;;;;;;25.77;15.52;;;;;;;5.74;100.00;100427.91;10344621;28;20527;-64
2021/12/17 12:15:32;;;;;;;30.67;16.27;;;;;;;5.84;100.00;100424.66;10363954;28;20046;-63
2021/12/17 12:21:02;;;;;;;24.88;15.38;;;;;;;5.88;100.00;100420.00;10347527;28;20058;-63
2021/12/17 12:26:26;;;;;;;27.13;16.40;;;;;;;5.91;100.00;100410.97;10360472;28;20037;-64
2021/12/17 12:31:53;;;;;;;26.95;16.02;;;;;;;5.92;100.00;100407.34;10347986;28;20050;-65
2021/12/17 12:37:00;;;;;;;26.63;15.32;;;;;;;5.93;100.00;100411.75;10365568;28;20205;-62
2021/12/17 12:42:07;;;;;;;24.40;15.50;;;;;;;5.93;100.00;100409.09;10392233;28;20038;-66
2021/12/17 12:47:13;;;;;;;29.38;16.25;;;;;;;5.94;100.00;100405.47;10366442;28;20053;-64
2021/12/17 12:52:22;;;;;;;27.88;16.40;;;;;;;5.98;100.00;100407.00;10390102;28;20110;-63
2021/12/17 12:57:28;;;;;;;26.40;15.60;;;;;;;5.88;100.00;100397.75;10355189;28;20135;-63
2021/12/17 13:02:33;;;;;;;32.95;16.40;;;;;;;5.85;100.00;100385.41;10361450;28;20045;-63
2021/12/17 13:07:40;;;;;;;29.58;15.23;;;;;;;5.91;100.00;100389.56;10358842;28;20160;-63
2021/12/17 13:12:50;;;;;;;27.67;15.60;;;;;;;6.02;100.00;100387.22;10355429;28;20038;-62
2021/12/17 13:23:22;;;;;;;27.58;15.35;;;;;;;6.26;100.00;100400.19;10349133;28;20160;-61
2021/12/17 13:28:25;;;;;;;27.23;15.63;;;;;;;6.24;100.00;100399.41;10344655;28;20062;-63
2021/12/17 13:33:38;;;;;;;25.27;13.88;;;;;;;6.15;100.00;100403.44;10357003;28;20042;-63
2021/12/17 13:38:42;;;;;;;24.77;13.70;;;;;;;6.22;100.00;100401.31;10356118;28;20049;-61
2021/12/17 13:43:46;;;;;;;22.80;13.30;;;;;;;6.20;100.00;100392.47;10337635;28;21270;-61
2021/12/17 13:48:51;;;;;;;23.00;13.05;;;;;;;6.29;100.00;100397.34;10356888;28;20058;-63
2021/12/17 13:53:57;;;;;;;22.27;12.38;;;;;;;6.19;100.00;100380.94;10357781;28;20041;-63
2021/12/17 13:59:13;;;;;;;25.45;13.80;;;;;;;6.22;100.00;100374.53;10359710;28;20857;-61
2021/12/17 14:04:18;;;;;;;21.75;13.07;;;;;;;6.22;100.00;100380.75;10358617;28;20120;-63
2021/12/17 14:09:23;;;;;;;26.95;13.35;;;;;;;6.28;100.00;100374.22;10362824;28;20041;-62
2021/12/17 14:14:28;;;;;;;21.63;13.02;;;;;;;6.81;100.00;100368.53;10350003;28;20030;-63
2021/12/17 14:19:43;;;;;;;25.17;13.90;;;;;;;7.26;100.00;100366.78;10335850;28;20049;-66
2021/12/17 14:24:47;;;;;;;24.02;13.18;;;;;;;7.25;100.00;100362.38;10360443;28;20096;-61
2021/12/17 14:30:05;;;;;;;22.48;11.85;;;;;;;6.86;100.00;100361.13;10365650;28;20056;-62
2021/12/17 14:35:12;;;;;;;23.58;12.20;;;;;;;6.39;100.00;100350.38;10360962;28;20070;-61
2021/12/17 14:40:32;;;;;;;22.85;12.50;;;;;;;6.14;100.00;100366.91;10365830;28;20045;-63
2021/12/17 14:45:44;;;;;;;23.73;12.63;;;;;;;5.89;100.00;100370.91;10364106;28;20042;-62
2021/12/17 15:01:50;;;;;;;25.00;13.77;;;;;;;5.35;100.00;100384.47;10341293;28;20494;-57
2021/12/17 15:06:54;;;;;;;22.55;13.10;;;;;;;5.19;100.00;100381.69;10349665;28;20052;-60
2021/12/17 15:12:00;;;;;;;25.80;13.02;;;;;;;5.08;100.00;100395.63;10347061;28;20104;-63
2021/12/17 15:17:04;;;;;;;25.50;13.50;;;;;;;5.05;100.00;100395.75;10333168;28;20121;-63
2021/12/17 15:22:11;;;;;;;23.13;13.88;;;;;;;5.05;100.00;100395.75;10329716;28;20053;-58
2021/12/17 15:27:15;;;;;;;24.95;13.63;;;;;;;5.04;100.00;100383.34;10346496;28;20045;-62
2021/12/17 15:32:26;;;;;;;28.02;15.10;;;;;;;5.01;100.00;100387.03;10353936;28;20049;-62
2021/12/17 15:37:31;;;;;;;29.95;15.43;;;;;;;5.02;100.00;100393.25;10343689;28;20039;-61
2021/12/17 15:42:35;;;;;;;25.90;14.65;;;;;;;5.03;100.00;100386.97;10336058;28;20054;-64
2021/12/17 15:48:30;;;;;;;26.92;14.63;;;;;;;5.03;100.00;100394.97;10326899;28;21002;-63
2021/12/17 15:53:38;;;;;;;26.98;14.32;;;;;;;5.04;100.00;100405.59;10296201;28;20101;-61
2021/12/17 15:58:41;;;;;;;31.30;18.40;;;;;;;5.06;100.00;100409.03;10302553;28;20411;-61
2021/12/17 16:03:47;;;;;;;36.38;19.75;;;;;;;5.05;100.00;100410.00;10301154;28;20053;-65
2021/12/17 16:08:56;;;;;;;31.90;16.55;;;;;;;5.04;100.00;100428.75;10295177;28;20575;-60
2021/12/17 16:24:43;;;;;;;28.77;16.08;;;;;;;5.06;100.00;100410.84;10301028;28;20505;-60
2021/12/17 16:29:46;;;;;;;29.10;15.40;;;;;;;5.07;100.00;100415.25;10291716;28;20039;-61
2021/12/17 16:34:50;;;;;;;25.55;15.25;;;;;;;5.08;100.00;100420.50;10290746;28;20048;-61
2021/12/17 16:39:54;;;;;;;26.60;14.90;;;;;;;5.13;100.00;100424.78;10296474;28;20047;-59
2021/12/17 16:45:22;;;;;;;29.70;16.40;;;;;;;5.14;100.00;100422.00;10287774;28;20042;-61
2021/12/17 16:50:29;;;;;;;33.50;18.23;;;;;;;5.13;100.00;100412.25;10311061;28;20415;-63
2021/12/17 16:55:39;;;;;;;39.17;20.70;;;;;;;5.12;100.00;100409.69;10343581;28;20052;-61
2021/12/17 17:00:43;;;;;;;36.53;20.00;;;;;;;5.14;100.00;100418.50;10323959;28;20057;-64
2021/12/17 17:05:47;;;;;;;40.40;23.60;;;;;;;5.15;100.00;100425.56;10343248;28;20053;-61
2021/12/17 17:10:57;;;;;;;39.17;21.90;;;;;;;5.16;100.00;100413.94;10340775;28;20048;-62
2021/12/17 17:16:04;;;;;;;45.65;24.23;;;;;;;5.15;100.00;100422.91;10338745;28;20127;-62
2021/12/17 17:21:09;;;;;;;41.00;22.98;;;;;;;5.14;100.00;100424.69;10346210;28;20049;-62
2021/12/17 17:26:14;;;;;;;42.13;23.08;;;;;;;5.13;100.00;100417.59;10341068;28;20048;-63
2021/12/17 17:31:18;;;;;;;45.50;26.77;;;;;;;5.13;100.00;100420.28;10340166;28;20045;-65
2021/12/17 17:36:23;;;;;;;51.42;26.60;;;;;;;5.13;100.00;100419.44;10331315;28;20042;-63
2021/12/17 17:41:32;;;;;;;40.80;22.45;;;;;;;5.11;100.00;100422.19;10339213;28;20056;-63
2021/12/17 17:46:40;;;;;;;38.33;22.02;;;;;;;5.10;100.00;100425.81;10330044;28;20129;-62
2021/12/17 17:52:21;;;;;;;36.63;20.35;;;;;;;5.09;100.00;100419.56;10327147;28;20133;-60
2021/12/17 17:57:26;;;;;;;35.60;19.83;;;;;;;5.07;100.00;100428.63;10343569;28;20113;-59
2021/12/17 18:02:29;;;;;;;34.65;19.73;;;;;;;5.07;100.00;100428.63;10323588;28;20056;-66
2021/12/17 18:07:32;;;;;;;37.72;19.83;;;;;;;5.07;100.00;100420.59;10324905;28;20070;-61
2021/12/17 18:12:45;;;;;;;37.92;21.80;;;;;;;5.08;100.00;100433.88;10335837;28;20067;-65
2021/12/17 18:17:48;;;;;;;36.17;20.20;;;;;;;5.04;100.00;100420.75;10327044;28;20048;-63
2021/12/17 18:22:53;;;;;;;40.90;21.65;;;;;;;4.99;100.00;100422.81;10353819;28;20108;-62
2021/12/17 18:27:58;;;;;;;36.90;21.48;;;;;;;4.94;100.00;100428.34;10333092;28;20070;-63
2021/12/17 18:33:02;;;;;;;38.08;20.77;;;;;;;4.90;100.00;100432.97;10311747;28;20053;-63
2021/12/17 18:38:07;;;;;;;36.80;21.52;;;;;;;4.82;100.00;100437.84;10329075;28;20503;-61
2021/12/17 18:48:32;;;;;;;40.55;21.75;;;;;;;4.71;100.00;100448.19;10335509;28;20047;-61
2021/12/17 18:53:35;;;;;;;40.33;19.67;;;;;;;4.61;100.00;100442.41;10330766;28;20051;-57
2021/12/17 18:58:40;;;;;;;34.20;17.95;;;;;;;4.58;100.00;100451.44;10332174;28;20141;-62
2021/12/17 19:03:43;;;;;;;31.45;18.10;;;;;;;4.53;100.00;100445.44;10315637;28;20046;-62
2021/12/17 19:08:47;;;;;;;32.13;17.83;;;;;;;4.51;100.00;100451.78;10319226;28;20068;-60
2021/12/17 19:13:51;;;;;;;34.45;18.55;;;;;;;4.47;100.00;100470.59;10335224;28;20046;-61
2021/12/17 19:19:07;;;;;;;36.40;18.52;;;;;;;4.43;100.00;100460.16;10330724;28;20116;-65
2021/12/17 19:24:12;;;;;;;32.72;18.27;;;;;;;4.42;100.00;100464.63;10331288;28;20149;-63
2021/12/17 19:29:18;;;;;;;28.42;17.73;;;;;;;4.37;100.00;100460.44;10337081;28;20141;-64
2021/12/17 19:34:21;;;;;;;31.88;18.13;;;;;;;4.31;100.00;100454.44;10318185;28;20145;-60
2021/12/17 19:39:24;;;;;;;31.08;17.83;;;;;;;4.29;100.00;100453.66;10315596;28;20050;-67
2021/12/17 19:44:29;;;;;;;30.60;17.98;;;;;;;4.26;100.00;100456.47;10344559;28;20129;-66
2021/12/17 19:49:48;;;;;;;33.67;19.17;;;;;;;4.23;100.00;100447.75;10343824;28;20061;-62
2021/12/17 19:54:52;;;;;;;33.70;18.67;;;;;;;4.22;100.00;100456.69;10348464;28;20376;-64
2021/12/17 20:00:05;;;;;;;28.88;17.80;;;;;;;4.22;100.00;100454.03;10322802;28;20046;-61
2021/12/17 20:05:11;;;;;;;31.90;18.60;;;;;;;4.29;100.00;100456.31;10335764;28;20046;-59
2021/12/17 20:10:15;;;;;;;30.02;17.83;;;;;;;4.30;100.00;100476.72;10319014;28;20076;-61
2021/12/17 20:15:20;;;;;;;34.40;19.42;;;;;;;4.31;100.00;100481.13;10341747;28;20534;-61
2021/12/17 20:20:23;;;;;;;31.67;18.67;;;;;;;4.30;100.00;100487.41;10338451;28;20049;-60
2021/12/17 20:25:26;;;;;;;36.47;21.02;;;;;;;4.31;100.00;100490.94;10345456;28;20054;-59
2021/12/17 20:30:31;;;;;;;41.58;22.30;;;;;;;4.34;100.00;100482.81;10313847;28;20044;-60
2021/12/17 20:35:34;;;;;;;38.53;21.52;;;;;;;4.36;100.00;100482.72;10321600;28;20085;-60
2021/12/17 20:40:39;;;;;;;37.97;21.23;;;;;;;4.39;100.00;100488.78;10313007;28;20132;-61
2021/12/17 20:45:45;;;;;;;49.53;25.27;;;;;;;4.40;100.00;100490.53;10329375;28;20042;-65
2021/12/17 20:50:50;;;;;;;50.35;25.67;;;;;;;4.40;100.00;100479.00;10315575;28;20064;-61
2021/12/17 20:55:55;;;;;;;64.28;28.98;;;;;;;4.36;100.00;100478.25;10337542;28;20031;-61
2021/12/17 21:01:01;;;;;;;68.82;30.80;;;;;;;4.31;100.00;100480.28;10322921;28;20057;-61
2021/12/17 21:06:05;;;;;;;69.00;30.55;;;;;;;4.31;100.00;100475.78;10345175;28;20407;-62
2021/12/17 21:11:08;;;;;;;66.70;30.63;;;;;;;4.32;100.00;100480.19;10337306;28;20069;-60
2021/12/17 21:16:13;;;;;;;66.07;31.33;;;;;;;4.37;100.00;100489.81;10324917;28;20501;-65
2021/12/17 21:21:16;;;;;;;68.00;32.03;;;;;;;4.37;100.00;100496.00;10354259;28;20071;-65
2021/12/17 21:26:19;;;;;;;60.70;30.38;;;;;;;4.37;100.00;100484.47;10360862;28;20578;-63
2021/12/17 21:31:24;;;;;;;61.67;29.63;;;;;;;4.31;100.00;100485.63;10338973;28;20069;-65
2021/12/17 21:36:27;;;;;;;77.68;31.50;;;;;;;4.25;100.00;100483.22;10333822;28;20494;-61
2021/12/17 21:41:33;;;;;;;78.90;31.95;;;;;;;4.23;100.00;100483.28;10334790;28;20042;-61
2021/12/17 21:46:40;;;;;;;66.63;30.75;;;;;;;4.15;100.00;100496.13;10331470;28;20038;-61
2021/12/17 21:51:43;;;;;;;84.72;34.38;;;;;;;4.16;100.00;100488.03;10332455;28;20058;-58
2021/12/17 21:56:46;;;;;;;86.25;33.97;;;;;;;4.16;100.00;100492.53;10312047;28;20074;-58
2021/12/17 22:02:13;;;;;;;91.85;35.60;;;;;;;4.18;100.00;100484.44;10331933;28;20383;-61
2021/12/17 22:07:17;;;;;;;78.65;33.85;;;;;;;4.18;100.00;100498.63;10327066;28;20097;-59
2021/12/17 22:12:20;;;;;;;79.22;31.52;;;;;;;4.13;100.00;100492.66;10336423;28;20046;-62
2021/12/17 22:17:25;;;;;;;56.72;26.80;;;;;;;4.06;100.00;100493.88;10335366;28;20042;-61
2021/12/17 22:22:31;;;;;;;49.65;23.17;;;;;;;4.03;100.00;100491.34;10323409;28;20303;-62
2021/12/17 22:27:34;;;;;;;43.65;23.50;;;;;;;4.08;100.00;100489.31;10338795;28;20088;-59
2021/12/17 22:32:38;;;;;;;35.42;18.90;;;;;;;4.10;100.00;100476.78;10341099;28;20074;-57
2021/12/17 22:37:44;;;;;;;33.72;19.48;;;;;;;4.13;100.00;100481.97;10334941;28;20061;-60
2021/12/17 22:42:47;;;;;;;32.53;18.42;;;;;;;4.14;100.00;100489.06;10341803;28;20097;-60
2021/12/17 22:47:52;;;;;;;50.47;24.35;;;;;;;4.11;100.00;100494.53;10363997;28;20045;-62
2021/12/17 22:52:55;;;;;;;51.35;24.60;;;;;;;4.10;100.00;100485.66;10368277;28;20168;-63
2021/12/17 22:57:59;;;;;;;51.28;23.70;;;;;;;4.10;100.00;100490.13;10368616;28;20072;-68
2021/12/17 23:03:03;;;;;;;46.65;23.58;;;;;;;4.10;100.00;100482.13;10345855;28;20117;-61
2021/12/17 23:08:11;;;;;;;46.92;22.75;;;;;;;4.10;100.00;100482.13;10330937;28;20037;-61
2021/12/17 23:13:14;;;;;;;41.00;21.67;;;;;;;4.09;100.00;100475.94;10332414;28;20045;-65
2021/12/17 23:18:19;;;;;;;51.83;22.67;;;;;;;4.07;100.00;100472.44;10332957;28;20483;-62
2021/12/17 23:23:22;;;;;;;43.92;22.80;;;;;;;4.07;100.00;100474.25;10331426;28;20104;-64
2021/12/17 23:28:25;;;;;;;48.38;23.95;;;;;;;3.98;100.00;100468.38;10328196;28;20066;-64
2021/12/17 23:33:46;;;;;;;52.95;23.88;;;;;;;3.95;100.00;100468.53;10290594;28;20431;-62
2021/12/17 23:38:49;;;;;;;46.80;23.92;;;;;;;3.89;100.00;100468.81;10285527;28;20444;-62
2021/12/17 23:43:52;;;;;;;56.30;25.70;;;;;;;3.82;100.00;100470.03;10284961;28;20074;-63
2021/12/17 23:48:57;;;;;;;53.45;24.60;;;;;;;3.83;100.00;100469.06;10272560;28;20498;-58
2021/12/17 23:54:01;;;;;;;55.03;24.65;;;;;;;3.81;100.00;100453.13;10285256;28;20053;-60
2021/12/17 23:59:05;;;;;;;51.60;23.92;;;;;;;3.84;100.00;100452.13;10286561;28;20043;-57
